sensor_id;sensor_type;location;lat;lon;timestamp;pressure;altitude;pressure_sealevel;temperature;humidity
41573;BME280;27286;47.870;19.006;2022-10-30T00:00:15;100027.31;;;12.39;93.77
41573;BME280;27286;47.870;19.006;2022-10-30T00:02:40;100011.78;;;12.35;93.53
41573;BME280;27286;47.870;19.006;2022-10-30T00:05:06;100015.34;;;12.33;93.91
41573;BME280;27286;47.870;19.006;2022-10-30T00:07:32;100015.34;;;12.33;94.09
41573;BME280;27286;47.870;19.006;2022-10-30T00:09:58;100010.38;;;12.27;93.86
41573;BME280;27286;47.870;19.006;2022-10-30T00:12:23;100004.41;;;12.23;94.44
41573;BME280;27286;47.870;19.006;2022-10-30T00:14:48;100010.59;;;12.21;94.87
41573;BME280;27286;47.870;19.006;2022-10-30T00:17:14;100002.84;;;12.19;95.19
41573;BME280;27286;47.870;19.006;2022-10-30T00:19:39;100003.75;;;12.18;95.52
41573;BME280;27286;47.870;19.006;2022-10-30T00:22:05;100008.91;;;12.20;95.75
41573;BME280;27286;47.870;19.006;2022-10-30T00:24:30;99998.53;;;12.18;96.09
41573;BME280;27286;47.870;19.006;2022-10-30T00:26:55;99988.22;;;12.15;96.15
41573;BME280;27286;47.870;19.006;2022-10-30T00:29:21;100000.09;;;12.22;96.29
41573;BME280;27286;47.870;19.006;2022-10-30T00:31:49;100006.13;;;12.24;96.24
41573;BME280;27286;47.870;19.006;2022-10-30T00:34:14;99998.47;;;12.20;96.10
41573;BME280;27286;47.870;19.006;2022-10-30T00:36:40;100011.41;;;12.23;96.09
41573;BME280;27286;47.870;19.006;2022-10-30T00:39:05;100005.63;;;12.15;96.33
41573;BME280;27286;47.870;19.006;2022-10-30T00:41:31;100001.13;;;12.18;96.57
41573;BME280;27286;47.870;19.006;2022-10-30T00:43:56;99999.63;;;12.13;96.58
41573;BME280;27286;47.870;19.006;2022-10-30T00:46:34;100000.22;;;12.19;96.84
41573;BME280;27286;47.870;19.006;2022-10-30T00:49:15;99999.44;;;12.17;97.08
41573;BME280;27286;47.870;19.006;2022-10-30T00:51:45;99997.69;;;12.18;97.50
41573;BME280;27286;47.870;19.006;2022-10-30T00:54:15;99993.38;;;12.17;97.48
41573;BME280;27286;47.870;19.006;2022-10-30T00:56:42;99990.88;;;12.14;97.65
41573;BME280;27286;47.870;19.006;2022-10-30T00:59:10;99994.28;;;12.16;97.70
41573;BME280;27286;47.870;19.006;2022-10-30T01:01:39;99997.81;;;12.15;97.54
41573;BME280;27286;47.870;19.006;2022-10-30T01:04:06;99982.63;;;12.02;97.55
41573;BME280;27286;47.870;19.006;2022-10-30T01:06:35;99981.69;;;12.03;97.75
41573;BME280;27286;47.870;19.006;2022-10-30T01:09:03;99976.41;;;12.05;98.15
41573;BME280;27286;47.870;19.006;2022-10-30T01:11:29;99977.38;;;12.02;98.06
41573;BME280;27286;47.870;19.006;2022-10-30T01:13:57;99973.88;;;12.03;98.31
41573;BME280;27286;47.870;19.006;2022-10-30T01:22:27;99989.78;;;12.19;97.95
41573;BME280;27286;47.870;19.006;2022-10-30T01:33:32;99987.78;;;12.26;96.75
41573;BME280;27286;47.870;19.006;2022-10-30T01:36:10;99992.13;;;12.27;96.50
41573;BME280;27286;47.870;19.006;2022-10-30T01:38:53;99983.66;;;12.20;96.46
41573;BME280;27286;47.870;19.006;2022-10-30T01:41:19;99977.47;;;12.23;96.06
41573;BME280;27286;47.870;19.006;2022-10-30T01:43:46;99986.91;;;12.27;96.23
41573;BME280;27286;47.870;19.006;2022-10-30T01:52:00;99975.59;;;12.26;95.98
41573;BME280;27286;47.870;19.006;2022-10-30T01:54:37;99955.84;;;12.19;95.86
41573;BME280;27286;47.870;19.006;2022-10-30T01:57:17;99969.50;;;12.26;95.70
41573;BME280;27286;47.870;19.006;2022-10-30T02:02:28;99961.81;;;12.23;95.44
41573;BME280;27286;47.870;19.006;2022-10-30T02:04:54;99967.81;;;12.25;95.22
41573;BME280;27286;47.870;19.006;2022-10-30T02:07:20;99954.94;;;12.20;95.19
41573;BME280;27286;47.870;19.006;2022-10-30T02:09:45;99971.25;;;12.25;95.27
41573;BME280;27286;47.870;19.006;2022-10-30T02:12:12;99966.97;;;12.24;95.29
41573;BME280;27286;47.870;19.006;2022-10-30T02:14:42;99969.63;;;12.23;95.14
41573;BME280;27286;47.870;19.006;2022-10-30T02:17:09;99958.34;;;12.22;94.97
41573;BME280;27286;47.870;19.006;2022-10-30T02:19:36;99959.31;;;12.20;94.94
41573;BME280;27286;47.870;19.006;2022-10-30T02:22:02;99962.72;;;12.22;94.99
41573;BME280;27286;47.870;19.006;2022-10-30T02:24:30;99959.31;;;12.20;94.81
41573;BME280;27286;47.870;19.006;2022-10-30T02:26:55;99968.78;;;12.22;94.56
41573;BME280;27286;47.870;19.006;2022-10-30T02:29:21;99959.50;;;12.15;94.69
41573;BME280;27286;47.870;19.006;2022-10-30T02:31:47;99959.38;;;12.18;94.63
41573;BME280;27286;47.870;19.006;2022-10-30T02:34:12;99962.06;;;12.17;94.52
41573;BME280;27286;47.870;19.006;2022-10-30T02:36:38;99973.16;;;12.22;94.58
41573;BME280;27286;47.870;19.006;2022-10-30T02:39:03;99963.81;;;12.16;94.64
41573;BME280;27286;47.870;19.006;2022-10-30T02:41:29;99968.00;;;12.20;94.60
41573;BME280;27286;47.870;19.006;2022-10-30T02:43:54;99975.81;;;12.20;94.69
41573;BME280;27286;47.870;19.006;2022-10-30T02:46:20;99969.75;;;12.20;94.24
41573;BME280;27286;47.870;19.006;2022-10-30T02:48:46;99960.47;;;12.13;94.47
41573;BME280;27286;47.870;19.006;2022-10-30T02:51:11;99966.47;;;12.15;94.52
41573;BME280;27286;47.870;19.006;2022-10-30T02:53:37;99964.66;;;12.17;94.31
41573;BME280;27286;47.870;19.006;2022-10-30T02:56:04;99968.84;;;12.21;93.76
41573;BME280;27286;47.870;19.006;2022-10-30T02:58:30;99967.28;;;12.17;93.68
41573;BME280;27286;47.870;19.006;2022-10-30T03:00:55;99963.22;;;12.10;93.96
41573;BME280;27286;47.870;19.006;2022-10-30T03:03:21;99967.53;;;12.11;94.13
41573;BME280;27286;47.870;19.006;2022-10-30T03:05:46;99974.38;;;12.13;94.18
41573;BME280;27286;47.870;19.006;2022-10-30T03:08:11;99974.38;;;12.13;94.33
41573;BME280;27286;47.870;19.006;2022-10-30T03:10:37;99964.06;;;12.10;94.36
41573;BME280;27286;47.870;19.006;2022-10-30T03:13:02;99970.13;;;12.11;94.39
41573;BME280;27286;47.870;19.006;2022-10-30T03:15:27;99962.31;;;12.11;94.20
41573;BME280;27286;47.870;19.006;2022-10-30T03:17:53;99957.13;;;12.09;93.96
41573;BME280;27286;47.870;19.006;2022-10-30T03:20:18;99958.00;;;12.10;94.18
41573;BME280;27286;47.870;19.006;2022-10-30T03:22:44;99956.25;;;12.10;93.89
41573;BME280;27286;47.870;19.006;2022-10-30T03:25:09;99964.84;;;12.12;93.92
41573;BME280;27286;47.870;19.006;2022-10-30T03:27:34;99960.59;;;12.10;93.92
41573;BME280;27286;47.870;19.006;2022-10-30T03:30:00;99963.03;;;12.14;93.53
41573;BME280;27286;47.870;19.006;2022-10-30T03:32:25;99951.97;;;12.08;93.59
41573;BME280;27286;47.870;19.006;2022-10-30T03:34:51;99954.56;;;12.08;93.73
41573;BME280;27286;47.870;19.006;2022-10-30T03:37:16;99961.41;;;12.12;93.36
41573;BME280;27286;47.870;19.006;2022-10-30T03:39:41;99954.47;;;12.11;93.47
41573;BME280;27286;47.870;19.006;2022-10-30T03:42:07;99957.09;;;12.11;93.36
41573;BME280;27286;47.870;19.006;2022-10-30T03:44:32;99964.84;;;12.12;93.28
41573;BME280;27286;47.870;19.006;2022-10-30T03:46:57;99964.00;;;12.12;93.21
41573;BME280;27286;47.870;19.006;2022-10-30T03:49:23;99951.16;;;12.05;93.37
41573;BME280;27286;47.870;19.006;2022-10-30T03:51:48;99956.16;;;12.12;93.19
41573;BME280;27286;47.870;19.006;2022-10-30T03:54:13;99944.94;;;12.10;93.06
41573;BME280;27286;47.870;19.006;2022-10-30T03:56:39;99962.19;;;12.14;93.04
41573;BME280;27286;47.870;19.006;2022-10-30T03:59:04;99948.56;;;12.05;93.04
41573;BME280;27286;47.870;19.006;2022-10-30T04:01:29;99955.25;;;12.13;93.38
41573;BME280;27286;47.870;19.006;2022-10-30T04:03:55;99951.03;;;12.09;92.94
41573;BME280;27286;47.870;19.006;2022-10-30T04:06:20;99951.91;;;12.09;93.04
41573;BME280;27286;47.870;19.006;2022-10-30T04:08:46;99954.63;;;12.06;93.33
41573;BME280;27286;47.870;19.006;2022-10-30T04:11:11;99958.88;;;12.09;93.36
41573;BME280;27286;47.870;19.006;2022-10-30T04:13:36;99951.22;;;12.04;93.58
41573;BME280;27286;47.870;19.006;2022-10-30T04:16:02;99949.59;;;12.01;93.68
41573;BME280;27286;47.870;19.006;2022-10-30T04:18:28;99957.19;;;12.08;93.40
41573;BME280;27286;47.870;19.006;2022-10-30T04:20:54;99951.16;;;12.05;93.66
41573;BME280;27286;47.870;19.006;2022-10-30T04:23:20;99949.34;;;12.08;93.55
41573;BME280;27286;47.870;19.006;2022-10-30T04:25:46;99939.03;;;12.04;93.53
41573;BME280;27286;47.870;19.006;2022-10-30T04:28:12;99952.81;;;12.08;93.42
41573;BME280;27286;47.870;19.006;2022-10-30T04:30:38;99949.34;;;12.08;93.61
41573;BME280;27286;47.870;19.006;2022-10-30T04:33:06;99950.25;;;12.07;93.64
41573;BME280;27286;47.870;19.006;2022-10-30T04:35:34;99942.69;;;12.00;93.71
41573;BME280;27286;47.870;19.006;2022-10-30T04:38:06;99949.41;;;12.06;93.88
41573;BME280;27286;47.870;19.006;2022-10-30T04:40:34;99948.50;;;12.07;93.94
41573;BME280;27286;47.870;19.006;2022-10-30T04:42:59;99965.84;;;12.08;93.97
41573;BME280;27286;47.870;19.006;2022-10-30T04:45:27;99951.34;;;12.01;93.91
41573;BME280;27286;47.870;19.006;2022-10-30T04:47:59;99950.50;;;12.00;94.00
41573;BME280;27286;47.870;19.006;2022-10-30T04:50:25;99958.22;;;12.03;93.99
41573;BME280;27286;47.870;19.006;2022-10-30T04:53:04;99961.66;;;12.04;93.92
41573;BME280;27286;47.870;19.006;2022-10-30T04:55:30;99965.13;;;12.04;93.90
41573;BME280;27286;47.870;19.006;2022-10-30T04:57:57;99966.09;;;12.02;93.90
41573;BME280;27286;47.870;19.006;2022-10-30T05:00:23;99980.66;;;12.08;93.71
41573;BME280;27286;47.870;19.006;2022-10-30T05:02:49;99965.25;;;12.01;93.87
41573;BME280;27286;47.870;19.006;2022-10-30T05:05:14;99962.72;;;12.00;93.97
41573;BME280;27286;47.870;19.006;2022-10-30T05:07:40;99961.78;;;12.01;93.67
41573;BME280;27286;47.870;19.006;2022-10-30T05:10:05;99965.38;;;11.98;93.76
41573;BME280;27286;47.870;19.006;2022-10-30T05:12:31;99967.19;;;11.96;93.69
41573;BME280;27286;47.870;19.006;2022-10-30T05:14:56;99970.59;;;11.98;93.70
41573;BME280;27286;47.870;19.006;2022-10-30T05:17:21;99976.66;;;11.99;93.79
41573;BME280;27286;47.870;19.006;2022-10-30T05:19:47;99967.19;;;11.96;93.81
41573;BME280;27286;47.870;19.006;2022-10-30T05:22:13;99967.13;;;11.98;93.65
41573;BME280;27286;47.870;19.006;2022-10-30T05:24:38;99967.19;;;11.96;93.58
41573;BME280;27286;47.870;19.006;2022-10-30T05:27:04;99969.56;;;12.02;93.41
41573;BME280;27286;47.870;19.006;2022-10-30T05:29:29;99971.44;;;11.99;93.48
41573;BME280;27286;47.870;19.006;2022-10-30T05:31:56;99961.97;;;11.96;93.25
41573;BME280;27286;47.870;19.006;2022-10-30T05:34:21;99960.34;;;11.94;93.09
41573;BME280;27286;47.870;19.006;2022-10-30T05:36:47;99961.25;;;11.93;93.12
41573;BME280;27286;47.870;19.006;2022-10-30T05:39:12;99962.97;;;11.94;93.12
41573;BME280;27286;47.870;19.006;2022-10-30T05:41:38;99955.28;;;11.89;92.96
41573;BME280;27286;47.870;19.006;2022-10-30T05:44:03;99966.41;;;11.94;93.00
41573;BME280;27286;47.870;19.006;2022-10-30T05:46:29;99966.41;;;11.94;93.14
41573;BME280;27286;47.870;19.006;2022-10-30T05:48:54;99957.69;;;11.95;92.89
41573;BME280;27286;47.870;19.006;2022-10-30T05:51:19;99964.41;;;12.01;92.76
41573;BME280;27286;47.870;19.006;2022-10-30T05:53:47;99964.34;;;12.02;92.65
41573;BME280;27286;47.870;19.006;2022-10-30T05:56:13;99965.25;;;12.01;92.68
41573;BME280;27286;47.870;19.006;2022-10-30T05:58:38;99973.88;;;12.03;92.64
41573;BME280;27286;47.870;19.006;2022-10-30T06:01:07;99967.69;;;12.06;92.78
41573;BME280;27286;47.870;19.006;2022-10-30T06:03:33;99974.66;;;12.05;92.78
41573;BME280;27286;47.870;19.006;2022-10-30T06:05:58;99971.19;;;12.05;92.52
41573;BME280;27286;47.870;19.006;2022-10-30T06:08:24;99984.13;;;12.08;92.59
41573;BME280;27286;47.870;19.006;2022-10-30T06:10:49;99981.47;;;12.10;92.74
41573;BME280;27286;47.870;19.006;2022-10-30T06:13:14;99983.34;;;12.06;92.63
41573;BME280;27286;47.870;19.006;2022-10-30T06:15:40;99987.50;;;12.12;92.78
41573;BME280;27286;47.870;19.006;2022-10-30T06:18:05;99987.50;;;12.12;92.80
41573;BME280;27286;47.870;19.006;2022-10-30T06:20:31;99993.63;;;12.11;92.86
41573;BME280;27286;47.870;19.006;2022-10-30T06:23:01;99994.41;;;12.13;92.72
41573;BME280;27286;47.870;19.006;2022-10-30T06:25:28;99996.09;;;12.14;92.79
41573;BME280;27286;47.870;19.006;2022-10-30T06:27:54;99995.97;;;12.17;92.68
41573;BME280;27286;47.870;19.006;2022-10-30T06:30:20;99987.25;;;12.18;92.67
41573;BME280;27286;47.870;19.006;2022-10-30T06:32:46;99987.31;;;12.16;92.46
41573;BME280;27286;47.870;19.006;2022-10-30T06:35:11;99990.75;;;12.17;92.14
41573;BME280;27286;47.870;19.006;2022-10-30T06:37:37;99982.16;;;12.15;92.16
41573;BME280;27286;47.870;19.006;2022-10-30T06:40:06;99992.47;;;12.18;92.34
41573;BME280;27286;47.870;19.006;2022-10-30T06:42:31;99985.53;;;12.17;92.10
41573;BME280;27286;47.870;19.006;2022-10-30T06:44:58;99996.72;;;12.20;91.93
41573;BME280;27286;47.870;19.006;2022-10-30T06:47:24;99984.88;;;12.12;91.90
41573;BME280;27286;47.870;19.006;2022-10-30T06:49:49;99996.16;;;12.12;92.05
41573;BME280;27286;47.870;19.006;2022-10-30T06:52:14;99999.44;;;12.17;91.83
41573;BME280;27286;47.870;19.006;2022-10-30T06:54:40;99992.78;;;12.10;92.06
41573;BME280;27286;47.870;19.006;2022-10-30T06:57:05;99999.50;;;12.16;92.32
41573;BME280;27286;47.870;19.006;2022-10-30T06:59:30;100003.63;;;12.21;92.25
41573;BME280;27286;47.870;19.006;2022-10-30T07:01:56;99996.66;;;12.22;92.43
41573;BME280;27286;47.870;19.006;2022-10-30T07:04:21;100005.25;;;12.24;92.21
41573;BME280;27286;47.870;19.006;2022-10-30T07:06:47;99997.44;;;12.24;92.38
41573;BME280;27286;47.870;19.006;2022-10-30T07:09:12;100006.06;;;12.26;92.44
41573;BME280;27286;47.870;19.006;2022-10-30T07:11:37;100000.72;;;12.29;92.55
41573;BME280;27286;47.870;19.006;2022-10-30T07:14:06;100001.59;;;12.29;92.48
41573;BME280;27286;47.870;19.006;2022-10-30T07:16:31;99998.22;;;12.26;92.59
41573;BME280;27286;47.870;19.006;2022-10-30T07:18:57;99996.50;;;12.26;92.62
41573;BME280;27286;47.870;19.006;2022-10-30T07:21:22;100005.03;;;12.30;92.48
41573;BME280;27286;47.870;19.006;2022-10-30T07:23:47;100003.28;;;12.30;92.61
41573;BME280;27286;47.870;19.006;2022-10-30T07:26:13;100009.47;;;12.28;91.81
41573;BME280;27286;47.870;19.006;2022-10-30T07:28:38;100012.31;;;12.22;91.68
41573;BME280;27286;47.870;19.006;2022-10-30T07:31:03;100001.31;;;12.14;91.87
41573;BME280;27286;47.870;19.006;2022-10-30T07:33:29;100003.03;;;12.15;92.05
41573;BME280;27286;47.870;19.006;2022-10-30T07:35:54;100006.34;;;12.18;92.31
41573;BME280;27286;47.870;19.006;2022-10-30T07:38:20;99998.59;;;12.17;92.30
41573;BME280;27286;47.870;19.006;2022-10-30T07:40:51;100003.56;;;12.23;92.23
41573;BME280;27286;47.870;19.006;2022-10-30T07:43:16;100005.09;;;12.28;92.42
41573;BME280;27286;47.870;19.006;2022-10-30T07:45:44;100003.88;;;12.37;92.10
41573;BME280;27286;47.870;19.006;2022-10-30T07:48:09;99990.88;;;12.35;92.00
41573;BME280;27286;47.870;19.006;2022-10-30T07:50:34;99998.72;;;12.35;91.42
41573;BME280;27286;47.870;19.006;2022-10-30T07:53:00;100019.41;;;12.40;91.01
41573;BME280;27286;47.870;19.006;2022-10-30T07:55:25;100017.00;;;12.35;91.27
41573;BME280;27286;47.870;19.006;2022-10-30T07:57:51;100018.56;;;12.40;91.34
41573;BME280;27286;47.870;19.006;2022-10-30T08:00:16;99994.47;;;12.33;91.50
41573;BME280;27286;47.870;19.006;2022-10-30T08:02:42;100007.91;;;12.46;91.42
41573;BME280;27286;47.870;19.006;2022-10-30T08:05:08;100013.84;;;12.49;91.16
41573;BME280;27286;47.870;19.006;2022-10-30T08:07:36;100006.66;;;12.54;91.06
41573;BME280;27286;47.870;19.006;2022-10-30T08:10:03;100001.50;;;12.53;90.73
41573;BME280;27286;47.870;19.006;2022-10-30T08:12:31;100014.28;;;12.60;90.53
41573;BME280;27286;47.870;19.006;2022-10-30T08:14:57;100012.53;;;12.59;90.12
41573;BME280;27286;47.870;19.006;2022-10-30T08:17:23;100020.22;;;12.64;89.93
41573;BME280;27286;47.870;19.006;2022-10-30T08:19:48;100006.31;;;12.63;89.81
41573;BME280;27286;47.870;19.006;2022-10-30T08:22:14;100007.94;;;12.66;89.51
41573;BME280;27286;47.870;19.006;2022-10-30T08:24:39;100009.84;;;12.62;88.88
41573;BME280;27286;47.870;19.006;2022-10-30T08:27:05;100006.66;;;12.54;88.91
41573;BME280;27286;47.870;19.006;2022-10-30T08:29:30;100011.88;;;12.54;89.39
41573;BME280;27286;47.870;19.006;2022-10-30T08:31:56;100009.34;;;12.53;89.31
41573;BME280;27286;47.870;19.006;2022-10-30T08:34:22;100006.94;;;12.48;89.33
41573;BME280;27286;47.870;19.006;2022-10-30T08:36:49;100004.31;;;12.48;89.61
41573;BME280;27286;47.870;19.006;2022-10-30T08:39:15;100009.22;;;12.56;89.41
41573;BME280;27286;47.870;19.006;2022-10-30T08:41:40;100004.13;;;12.53;89.37
41573;BME280;27286;47.870;19.006;2022-10-30T08:44:06;100013.47;;;12.58;89.16
41573;BME280;27286;47.870;19.006;2022-10-30T08:46:31;100015.91;;;12.63;89.17
41573;BME280;27286;47.870;19.006;2022-10-30T08:48:57;100013.22;;;12.64;88.84
41573;BME280;27286;47.870;19.006;2022-10-30T08:51:22;100013.09;;;12.68;88.99
41573;BME280;27286;47.870;19.006;2022-10-30T08:53:47;100016.50;;;12.70;88.92
41573;BME280;27286;47.870;19.006;2022-10-30T08:56:16;100023.28;;;12.74;88.72
41573;BME280;27286;47.870;19.006;2022-10-30T08:58:41;100010.16;;;12.75;88.76
41573;BME280;27286;47.870;19.006;2022-10-30T09:01:07;100008.41;;;12.76;88.84
41573;BME280;27286;47.870;19.006;2022-10-30T09:03:32;100010.13;;;12.77;88.81
41573;BME280;27286;47.870;19.006;2022-10-30T09:05:58;100015.88;;;12.85;88.78
41573;BME280;27286;47.870;19.006;2022-10-30T09:08:26;100020.13;;;12.87;88.77
41573;BME280;27286;47.870;19.006;2022-10-30T09:10:55;100015.75;;;12.88;88.91
41573;BME280;27286;47.870;19.006;2022-10-30T09:13:21;100014.81;;;12.89;88.76
41573;BME280;27286;47.870;19.006;2022-10-30T09:15:47;100017.31;;;12.92;88.77
41573;BME280;27286;47.870;19.006;2022-10-30T09:18:12;100013.00;;;12.91;88.73
41573;BME280;27286;47.870;19.006;2022-10-30T09:20:37;100007.69;;;12.92;88.65
41573;BME280;27286;47.870;19.006;2022-10-30T09:23:03;100011.16;;;12.93;88.65
41573;BME280;27286;47.870;19.006;2022-10-30T09:25:28;100014.31;;;13.01;88.70
41573;BME280;27286;47.870;19.006;2022-10-30T09:27:54;100010.00;;;13.00;88.59
41573;BME280;27286;47.870;19.006;2022-10-30T09:30:20;100008.97;;;13.04;88.62
41573;BME280;27286;47.870;19.006;2022-10-30T09:32:53;100012.34;;;13.06;88.76
41573;BME280;27286;47.870;19.006;2022-10-30T09:35:18;100008.97;;;13.04;88.66
41573;BME280;27286;47.870;19.006;2022-10-30T09:37:43;100001.13;;;13.04;88.64
41573;BME280;27286;47.870;19.006;2022-10-30T09:40:17;100007.91;;;13.08;88.54
41573;BME280;27286;47.870;19.006;2022-10-30T09:42:45;100004.44;;;13.08;88.43
41573;BME280;27286;47.870;19.006;2022-10-30T09:48:07;100007.19;;;13.05;88.56
41573;BME280;27286;47.870;19.006;2022-10-30T09:53:32;99996.53;;;13.09;88.61
41573;BME280;27286;47.870;19.006;2022-10-30T09:58:58;100000.50;;;13.19;88.10
41573;BME280;27286;47.870;19.006;2022-10-30T10:01:33;99996.84;;;13.23;88.14
41573;BME280;27286;47.870;19.006;2022-10-30T10:04:05;99992.38;;;13.25;87.62
41573;BME280;27286;47.870;19.006;2022-10-30T10:06:33;99994.16;;;13.25;87.74
41573;BME280;27286;47.870;19.006;2022-10-30T10:09:14;99992.78;;;13.16;87.82
41573;BME280;27286;47.870;19.006;2022-10-30T10:11:50;99989.44;;;13.13;88.21
41573;BME280;27286;47.870;19.006;2022-10-30T10:14:25;99993.69;;;13.15;88.72
41573;BME280;27286;47.870;19.006;2022-10-30T10:16:53;99985.91;;;13.14;88.93
41573;BME280;27286;47.870;19.006;2022-10-30T10:19:21;99986.59;;;13.19;89.14
41573;BME280;27286;47.870;19.006;2022-10-30T10:21:56;99983.91;;;13.20;89.06
41573;BME280;27286;47.870;19.006;2022-10-30T10:24:24;99985.47;;;13.24;89.02
41573;BME280;27286;47.870;19.006;2022-10-30T10:37:39;99973.06;;;13.30;89.26
41573;BME280;27286;47.870;19.006;2022-10-30T10:43:01;99966.63;;;13.37;89.41
41573;BME280;27286;47.870;19.006;2022-10-30T10:51:11;99972.44;;;13.43;88.92
41573;BME280;27286;47.870;19.006;2022-10-30T10:54:00;99975.13;;;13.42;88.90
41573;BME280;27286;47.870;19.006;2022-10-30T10:56:36;99971.72;;;13.40;89.00
41573;BME280;27286;47.870;19.006;2022-10-30T10:59:09;99974.25;;;13.41;89.25
41573;BME280;27286;47.870;19.006;2022-10-30T11:01:39;99970.72;;;13.42;89.22
41573;BME280;27286;47.870;19.006;2022-10-30T11:04:14;99959.34;;;13.43;89.31
41573;BME280;27286;47.870;19.006;2022-10-30T11:06:46;99950.47;;;13.47;89.07
41573;BME280;27286;47.870;19.006;2022-10-30T11:09:14;99954.63;;;13.51;88.91
41573;BME280;27286;47.870;19.006;2022-10-30T11:11:42;99951.94;;;13.53;88.93
41573;BME280;27286;47.870;19.006;2022-10-30T11:14:28;99953.50;;;13.57;88.92
41573;BME280;27286;47.870;19.006;2022-10-30T11:19:57;99944.81;;;13.57;88.93
41573;BME280;27286;47.870;19.006;2022-10-30T11:22:45;99938.66;;;13.58;88.99
41573;BME280;27286;47.870;19.006;2022-10-30T11:25:32;99936.78;;;13.61;88.77
41573;BME280;27286;47.870;19.006;2022-10-30T11:28:00;99934.94;;;13.63;88.58
41573;BME280;27286;47.870;19.006;2022-10-30T11:30:28;99932.25;;;13.65;88.15
41573;BME280;27286;47.870;19.006;2022-10-30T11:32:55;99932.94;;;13.68;88.58
41573;BME280;27286;47.870;19.006;2022-10-30T11:35:21;99939.09;;;13.67;88.15
41573;BME280;27286;47.870;19.006;2022-10-30T11:37:49;99924.41;;;13.65;88.45
41573;BME280;27286;47.870;19.006;2022-10-30T11:40:22;99932.16;;;13.66;88.42
41573;BME280;27286;47.870;19.006;2022-10-30T11:43:00;99933.88;;;13.67;88.56
41573;BME280;27286;47.870;19.006;2022-10-30T11:45:32;99921.78;;;13.65;88.77
41573;BME280;27286;47.870;19.006;2022-10-30T11:48:01;99927.72;;;13.68;88.70
41573;BME280;27286;47.870;19.006;2022-10-30T11:50:29;99929.34;;;13.71;88.81
41573;BME280;27286;47.870;19.006;2022-10-30T11:52:58;99922.56;;;13.67;88.62
41573;BME280;27286;47.870;19.006;2022-10-30T11:55:37;99924.31;;;13.66;89.03
41573;BME280;27286;47.870;19.006;2022-10-30T11:58:04;99925.25;;;13.65;89.10
41573;BME280;27286;47.870;19.006;2022-10-30T12:00:32;99932.16;;;13.66;88.98
41573;BME280;27286;47.870;19.006;2022-10-30T12:02:59;99927.09;;;13.63;88.77
41573;BME280;27286;47.870;19.006;2022-10-30T12:05:40;99931.41;;;13.64;88.66
41573;BME280;27286;47.870;19.006;2022-10-30T12:10:34;99933.94;;;13.66;89.00
41573;BME280;27286;47.870;19.006;2022-10-30T12:13:05;99934.72;;;13.68;89.10
41573;BME280;27286;47.870;19.006;2022-10-30T12:15:35;99931.31;;;13.66;89.49
41573;BME280;27286;47.870;19.006;2022-10-30T12:18:07;99920.16;;;13.62;89.37
41573;BME280;27286;47.870;19.006;2022-10-30T12:20:48;99930.34;;;13.68;89.44
41573;BME280;27286;47.870;19.006;2022-10-30T12:23:18;99930.47;;;13.65;89.43
41573;BME280;27286;47.870;19.006;2022-10-30T12:25:50;99923.88;;;13.57;89.44
41573;BME280;27286;47.870;19.006;2022-10-30T12:28:20;99931.66;;;13.58;89.73
41573;BME280;27286;47.870;19.006;2022-10-30T12:30:57;99931.88;;;13.53;89.95
41573;BME280;27286;47.870;19.006;2022-10-30T12:33:51;99932.88;;;13.51;90.19
41573;BME280;27286;47.870;19.006;2022-10-30T12:36:22;99921.09;;;13.41;90.41
41573;BME280;27286;47.870;19.006;2022-10-30T12:39:11;99932.16;;;13.47;90.57
41573;BME280;27286;47.870;19.006;2022-10-30T12:41:42;99929.47;;;13.49;90.99
41573;BME280;27286;47.870;19.006;2022-10-30T12:44:10;99924.09;;;13.52;91.08
41573;BME280;27286;47.870;19.006;2022-10-30T12:46:47;99919.16;;;13.46;90.80
41573;BME280;27286;47.870;19.006;2022-10-30T12:49:21;99926.78;;;13.50;91.17
41573;BME280;27286;47.870;19.006;2022-10-30T12:52:00;99922.63;;;13.46;91.25
41573;BME280;27286;47.870;19.006;2022-10-30T12:54:49;99928.56;;;13.50;91.24
41573;BME280;27286;47.870;19.006;2022-10-30T12:57:19;99925.09;;;13.49;91.38
41573;BME280;27286;47.870;19.006;2022-10-30T13:00:00;99922.81;;;13.42;91.60
41573;BME280;27286;47.870;19.006;2022-10-30T13:07:50;99920.47;;;13.36;92.14
41573;BME280;27286;47.870;19.006;2022-10-30T13:10:49;99922.25;;;13.35;92.56
41573;BME280;27286;47.870;19.006;2022-10-30T13:13:29;99923.25;;;13.33;92.66
41573;BME280;27286;47.870;19.006;2022-10-30T13:15:57;99912.78;;;13.33;92.80
41573;BME280;27286;47.870;19.006;2022-10-30T13:18:25;99908.63;;;13.29;92.80
41573;BME280;27286;47.870;19.006;2022-10-30T13:23:51;99916.16;;;13.35;92.79
41573;BME280;27286;47.870;19.006;2022-10-30T13:29:03;99914.31;;;13.37;92.96
41573;BME280;27286;47.870;19.006;2022-10-30T13:31:36;99928.31;;;13.36;92.92
41573;BME280;27286;47.870;19.006;2022-10-30T13:34:24;99925.78;;;13.34;93.04
41573;BME280;27286;47.870;19.006;2022-10-30T13:39:58;99925.06;;;13.31;93.46
41573;BME280;27286;47.870;19.006;2022-10-30T13:51:02;99927.69;;;13.31;93.31
41573;BME280;27286;47.870;19.006;2022-10-30T13:53:36;99943.38;;;13.31;93.18
41573;BME280;27286;47.870;19.006;2022-10-30T13:56:05;99934.81;;;13.27;93.23
41573;BME280;27286;47.870;19.006;2022-10-30T13:58:49;99921.94;;;13.22;93.36
41573;BME280;27286;47.870;19.006;2022-10-30T14:01:22;99933.00;;;13.29;93.09
41573;BME280;27286;47.870;19.006;2022-10-30T14:04:08;99927.09;;;13.24;93.10
41573;BME280;27286;47.870;19.006;2022-10-30T14:10:10;99929.78;;;13.22;93.87
41573;BME280;27286;47.870;19.006;2022-10-30T14:15:30;99910.63;;;13.22;93.60
41573;BME280;27286;47.870;19.006;2022-10-30T14:20:41;99920.09;;;13.24;93.58